Time;durP1;ratioP1;P1;durP2;ratioP2;P2;SDS_P1;SDS_P2;PMS_P1;PMS_P2;Temp;Humidity;BMP_temperature;BMP_pressure;BME280_temperature;BME280_humidity;BME280_pressure;Samples;Min_cycle;Max_cycle;Signal;HPM_P1;HPM_P2
2023/08/09 00:02:20;;;;;;;5.60;1.63;;;18.20;99.90;;;;;;4950407;29;20410;-70
2023/08/09 00:04:45;;;;;;;5.53;1.50;;;18.20;99.90;;;;;;4950616;29;20443;-70
2023/08/09 00:07:11;;;;;;;5.93;1.87;;;18.20;99.90;;;;;;4949861;28;20902;-70
2023/08/09 00:09:36;;;;;;;6.50;1.80;;;18.20;99.90;;;;;;4950951;29;20945;-70
2023/08/09 00:12:03;;;;;;;5.60;1.50;;;18.20;99.90;;;;;;4950362;29;20390;-70
2023/08/09 00:14:29;;;;;;;5.90;1.80;;;18.20;99.90;;;;;;4950659;28;20882;-70
2023/08/09 00:16:56;;;;;;;6.38;1.40;;;18.10;99.90;;;;;;4949791;29;21277;-70
2023/08/09 00:19:21;;;;;;;5.70;1.70;;;18.10;99.90;;;;;;4954472;28;20396;-70
2023/08/09 00:21:47;;;;;;;8.10;1.93;;;18.00;1.00;;;;;;4968460;28;20434;-70
2023/08/09 00:24:13;;;;;;;6.33;1.63;;;17.90;99.90;;;;;;4958033;28;20434;-70
2023/08/09 00:26:38;;;;;;;6.70;1.80;;;17.90;99.90;;;;;;4965220;28;20418;-70
2023/08/09 00:29:04;;;;;;;5.50;1.60;;;17.90;99.90;;;;;;4951046;28;20431;-70
2023/08/09 00:31:29;;;;;;;6.40;1.60;;;17.90;1.00;;;;;;4959234;28;20482;-70
2023/08/09 00:33:55;;;;;;;6.63;1.80;;;17.80;99.90;;;;;;4960951;28;20408;-70
2023/08/09 00:36:20;;;;;;;6.17;1.70;;;17.70;99.90;;;;;;4970996;28;20434;-70
2023/08/09 00:38:46;;;;;;;5.80;1.57;;;17.70;99.90;;;;;;4953867;28;20442;-70
2023/08/09 00:41:12;;;;;;;6.38;1.70;;;17.70;1.00;;;;;;4950091;28;20405;-70
2023/08/09 00:43:37;;;;;;;7.57;1.70;;;17.70;1.00;;;;;;4949790;29;20402;-70
2023/08/09 00:46:03;;;;;;;5.90;1.40;;;17.70;1.00;;;;;;4950035;29;20738;-71
2023/08/09 00:48:29;;;;;;;8.00;1.75;;;17.70;99.90;;;;;;4949697;28;20430;-71
2023/08/09 00:50:55;;;;;;;10.00;1.60;;;17.80;99.90;;;;;;4965900;28;20427;-71
2023/08/09 00:53:21;;;;;;;7.20;1.70;;;17.80;99.90;;;;;;4967511;28;20432;-71
2023/08/09 00:55:47;;;;;;;6.23;1.93;;;17.80;99.90;;;;;;4944951;28;20438;-71
2023/08/09 00:58:12;;;;;;;6.75;2.25;;;17.70;99.90;;;;;;4950394;28;20410;-71
2023/08/09 01:00:38;;;;;;;5.43;2.00;;;17.70;1.00;;;;;;4959066;28;20749;-71
2023/08/09 01:03:04;;;;;;;5.90;1.50;;;17.70;1.00;;;;;;4936014;29;20755;-70
2023/08/09 01:05:36;;;;;;;6.13;1.70;;;17.70;1.00;;;;;;4941368;28;20414;-70
2023/08/09 01:08:26;;;;;;;6.07;2.08;;;17.70;1.00;;;;;;4965294;28;20422;-70
2023/08/09 01:11:17;;;;;;;5.25;1.30;;;17.80;1.00;;;;;;4967251;28;20911;-70
2023/08/09 01:13:45;;;;;;;6.78;1.60;;;17.70;1.00;;;;;;4954517;28;20480;-71
2023/08/09 01:16:11;;;;;;;5.50;1.50;;;17.70;1.00;;;;;;4964050;28;20502;-70
2023/08/09 01:18:41;;;;;;;7.00;1.70;;;17.70;32.30;;;;;;4957936;28;20412;-70
2023/08/09 01:21:08;;;;;;;6.40;1.70;;;17.50;1.00;;;;;;4971541;28;20750;-70
2023/08/09 01:23:36;;;;;;;5.28;1.40;;;17.60;1.00;;;;;;4960878;28;20471;-70
2023/08/09 01:26:04;;;;;;;5.60;1.42;;;17.60;1.00;;;;;;4961394;28;20423;-69
2023/08/09 01:28:30;;;;;;;6.97;1.50;;;17.70;99.90;;;;;;4971581;28;20539;-70
2023/08/09 01:30:57;;;;;;;5.40;1.40;;;17.80;1.00;;;;;;4963606;28;20890;-70
2023/08/09 01:33:23;;;;;;;5.78;1.70;;;17.80;1.00;;;;;;4967850;28;20423;-69
2023/08/09 01:36:22;;;;;;;5.53;1.50;;;17.70;99.90;;;;;;4959009;28;20839;-70
2023/08/09 01:39:03;;;;;;;13.02;1.73;;;17.60;99.90;;;;;;4937435;28;21001;-70
2023/08/09 01:41:29;;;;;;;6.32;1.52;;;17.70;99.90;;;;;;4958600;28;20865;-70
2023/08/09 01:43:56;;;;;;;5.72;1.70;;;17.70;1.00;;;;;;4952100;29;20401;-71
2023/08/09 01:46:23;;;;;;;5.97;1.80;;;17.70;99.90;;;;;;4967999;28;20416;-70
2023/08/09 01:48:49;;;;;;;5.40;1.40;;;17.70;50.10;;;;;;4971162;28;20424;-70
2023/08/09 01:51:14;;;;;;;5.97;1.70;;;17.70;1.00;;;;;;4964875;28;20995;-70
2023/08/09 01:53:39;;;;;;;5.70;1.60;;;17.70;1.00;;;;;;4970527;28;20430;-70
2023/08/09 01:56:05;;;;;;;5.67;1.90;;;17.70;1.00;;;;;;4964940;28;20802;-70
2023/08/09 01:58:31;;;;;;;5.40;1.43;;;17.70;19.30;;;;;;4969144;28;20412;-70
2023/08/09 02:00:57;;;;;;;6.40;1.50;;;17.60;99.90;;;;;;4979765;28;20450;-70
2023/08/09 02:03:25;;;;;;;6.53;1.80;;;17.60;99.90;;;;;;4966076;28;20422;-69
2023/08/09 02:05:51;;;;;;;6.20;1.50;;;17.60;99.90;;;;;;4965716;28;21024;-70
2023/08/09 02:08:17;;;;;;;5.97;1.60;;;17.60;99.90;;;;;;4971204;28;20801;-70
2023/08/09 02:10:42;;;;;;;5.63;1.50;;;17.50;99.90;;;;;;4968098;28;20435;-70
2023/08/09 02:13:08;;;;;;;5.40;1.90;;;17.40;99.90;;;;;;4952197;29;20520;-70
2023/08/09 02:15:33;;;;;;;5.70;1.73;;;17.40;99.90;;;;;;4954627;28;20439;-70
2023/08/09 02:17:59;;;;;;;6.60;1.60;;;17.30;99.90;;;;;;4969892;28;20408;-70
2023/08/09 02:20:25;;;;;;;5.60;1.70;;;17.30;1.00;;;;;;4949072;28;20481;-70
2023/08/09 02:22:50;;;;;;;8.68;1.90;;;17.20;99.90;;;;;;4951605;28;20454;-70
2023/08/09 02:25:17;;;;;;;7.30;1.80;;;17.20;99.90;;;;;;4961694;28;20439;-70
2023/08/09 02:27:42;;;;;;;5.75;1.60;;;17.30;99.90;;;;;;4966775;28;20769;-70
2023/08/09 02:30:09;;;;;;;5.95;1.48;;;17.20;1.00;;;;;;4958822;28;20460;-70
2023/08/09 02:32:36;;;;;;;5.43;1.80;;;17.20;99.90;;;;;;4960752;28;20416;-70
2023/08/09 02:35:03;;;;;;;4.60;1.20;;;17.20;99.90;;;;;;4970417;28;20400;-70
2023/08/09 02:37:29;;;;;;;5.73;1.80;;;17.20;99.90;;;;;;4955103;28;20402;-71
2023/08/09 02:39:56;;;;;;;5.55;1.52;;;17.30;99.90;;;;;;4952269;28;20746;-71
2023/08/09 02:42:22;;;;;;;6.72;1.90;;;17.20;1.00;;;;;;4952639;28;20918;-71
2023/08/09 02:44:47;;;;;;;6.78;1.60;;;17.30;54.50;;;;;;4952063;28;20471;-70
2023/08/09 02:47:13;;;;;;;5.77;1.53;;;17.30;99.90;;;;;;4951699;29;20422;-70
2023/08/09 02:49:39;;;;;;;5.70;1.40;;;17.20;99.90;;;;;;4968381;28;20486;-70
2023/08/09 02:52:05;;;;;;;5.88;1.58;;;17.20;99.90;;;;;;4971495;28;20484;-70
2023/08/09 02:54:30;;;;;;;5.40;1.60;;;17.30;17.20;;;;;;4971284;28;20867;-70
2023/08/09 02:56:56;;;;;;;6.20;1.40;;;17.30;1.00;;;;;;4968616;28;20429;-70
2023/08/09 02:59:21;;;;;;;8.18;1.70;;;17.30;99.90;;;;;;4952056;29;20739;-70
2023/08/09 03:01:48;;;;;;;5.85;1.45;;;17.30;99.90;;;;;;4958936;28;20452;-70
2023/08/09 03:04:13;;;;;;;5.95;1.80;;;17.30;1.00;;;;;;4952685;29;20398;-70
2023/08/09 03:06:39;;;;;;;5.77;1.70;;;17.30;10.40;;;;;;4952588;29;20978;-70
2023/08/09 03:09:06;;;;;;;5.40;1.50;;;17.30;20.50;;;;;;4959139;28;20987;-70
2023/08/09 03:11:31;;;;;;;5.53;1.88;;;17.30;1.00;;;;;;4947264;28;21500;-70
2023/08/09 03:13:57;;;;;;;6.40;1.83;;;17.20;99.90;;;;;;4961422;28;20421;-70
2023/08/09 03:16:23;;;;;;;6.93;1.60;;;17.10;1.00;;;;;;4950802;29;20425;-70
2023/08/09 03:18:49;;;;;;;8.52;1.98;;;17.10;99.90;;;;;;4951507;29;20420;-69
2023/08/09 03:21:15;;;;;;;7.05;1.65;;;17.00;1.00;;;;;;4950169;29;20422;-70
2023/08/09 03:23:40;;;;;;;6.37;1.80;;;17.10;1.00;;;;;;4950582;28;20437;-69
2023/08/09 03:26:06;;;;;;;6.35;1.77;;;17.00;1.00;;;;;;4951015;29;20414;-70
2023/08/09 03:28:32;;;;;;;6.20;1.50;;;17.00;1.00;;;;;;4935470;29;20431;-69
2023/08/09 03:30:58;;;;;;;5.80;1.65;;;16.90;27.30;;;;;;4954631;28;21079;-70
2023/08/09 03:33:25;;;;;;;4.95;1.40;;;17.00;1.00;;;;;;4947852;29;20468;-70
2023/08/09 03:35:50;;;;;;;5.07;1.38;;;17.00;1.00;;;;;;4943807;28;20548;-70
2023/08/09 03:38:16;;;;;;;6.95;2.05;;;17.00;99.90;;;;;;4966323;28;20995;-70
2023/08/09 03:40:41;;;;;;;5.90;1.65;;;17.10;12.20;;;;;;4956798;28;20432;-69
2023/08/09 03:43:07;;;;;;;6.00;1.70;;;17.10;1.00;;;;;;4950315;28;20926;-69
2023/08/09 03:45:32;;;;;;;6.93;1.50;;;17.10;1.00;;;;;;4967015;28;20426;-69
2023/08/09 03:47:58;;;;;;;4.40;1.20;;;17.10;99.90;;;;;;4969420;28;20424;-69
2023/08/09 03:50:24;;;;;;;5.82;1.70;;;17.00;1.00;;;;;;4965734;28;20417;-70
2023/08/09 03:52:50;;;;;;;5.20;1.48;;;17.00;1.00;;;;;;4959795;28;20921;-70
2023/08/09 03:55:16;;;;;;;5.47;1.73;;;17.10;1.00;;;;;;4968656;28;20438;-70
2023/08/09 03:57:41;;;;;;;5.43;1.50;;;17.10;1.00;;;;;;4968836;28;20412;-69
2023/08/09 04:00:09;;;;;;;7.10;1.80;;;17.10;1.00;;;;;;4969990;28;20404;-70
2023/08/09 04:02:35;;;;;;;5.50;1.67;;;17.10;1.00;;;;;;4963082;28;20411;-69
2023/08/09 04:05:00;;;;;;;7.72;2.10;;;17.10;99.90;;;;;;4954011;28;20417;-69
2023/08/09 04:07:26;;;;;;;6.57;1.60;;;17.10;1.00;;;;;;4956552;28;20414;-70
2023/08/09 04:09:51;;;;;;;4.90;1.40;;;17.10;1.00;;;;;;4959206;28;20412;-70
2023/08/09 04:12:17;;;;;;;5.97;1.45;;;17.10;99.90;;;;;;4945939;28;20536;-70
2023/08/09 04:14:43;;;;;;;5.60;1.90;;;17.10;1.00;;;;;;4939742;29;20405;-70
2023/08/09 04:17:08;;;;;;;6.15;1.70;;;17.00;99.90;;;;;;4954499;28;20443;-70
2023/08/09 04:19:34;;;;;;;6.30;1.87;;;17.00;99.90;;;;;;4949889;28;20421;-70
2023/08/09 04:21:59;;;;;;;7.90;1.43;;;17.10;99.90;;;;;;4947293;29;20899;-70
2023/08/09 04:24:25;;;;;;;6.83;1.60;;;17.10;99.90;;;;;;4949265;28;20457;-71
2023/08/09 04:26:52;;;;;;;5.82;1.50;;;17.10;99.90;;;;;;4950909;28;20472;-70
2023/08/09 04:29:17;;;;;;;8.60;1.80;;;17.10;99.20;;;;;;4939138;29;20417;-70
2023/08/09 04:31:44;;;;;;;5.00;1.20;;;17.10;99.90;;;;;;4948284;28;20459;-72
2023/08/09 04:34:10;;;;;;;8.98;1.55;;;17.10;99.90;;;;;;4936626;28;20446;-70
2023/08/09 04:36:36;;;;;;;6.40;1.80;;;17.10;1.00;;;;;;4947059;28;20427;-70
2023/08/09 04:39:01;;;;;;;5.90;1.60;;;17.20;99.90;;;;;;4945807;29;20415;-70
2023/08/09 04:41:27;;;;;;;4.60;1.10;;;17.20;99.90;;;;;;4939295;28;20505;-70
2023/08/09 04:43:52;;;;;;;6.00;1.70;;;17.30;99.90;;;;;;4943185;28;20926;-70
2023/08/09 04:46:18;;;;;;;8.23;2.03;;;17.30;99.90;;;;;;4954413;28;20423;-69
2023/08/09 04:48:43;;;;;;;6.03;1.90;;;17.20;28.60;;;;;;4950799;28;20448;-70
2023/08/09 04:51:09;;;;;;;5.60;1.38;;;17.20;1.00;;;;;;4951845;29;20421;-70
2023/08/09 04:53:36;;;;;;;5.13;1.50;;;17.10;1.00;;;;;;4941506;28;20981;-70
2023/08/09 04:56:03;;;;;;;5.65;1.85;;;17.10;99.90;;;;;;4947682;28;21455;-70
2023/08/09 04:58:30;;;;;;;5.88;1.30;;;17.10;99.90;;;;;;4957333;28;20412;-69
2023/08/09 05:00:56;;;;;;;5.30;1.70;;;17.20;99.90;;;;;;4954194;28;20405;-70
2023/08/09 05:03:21;;;;;;;6.90;1.63;;;17.20;99.90;;;;;;4959952;28;20472;-70
2023/08/09 05:05:47;;;;;;;5.67;1.63;;;17.20;99.90;;;;;;4950412;28;20418;-70
2023/08/09 05:08:12;;;;;;;8.00;2.00;;;17.30;99.90;;;;;;4959413;28;20869;-70
2023/08/09 05:10:38;;;;;;;6.00;1.67;;;17.50;1.00;;;;;;4952240;29;20420;-70
2023/08/09 05:13:04;;;;;;;6.20;1.43;;;17.50;1.00;;;;;;4965828;28;20490;-69
2023/08/09 05:15:29;;;;;;;6.93;1.50;;;17.50;98.10;;;;;;4967284;28;20459;-70
2023/08/09 05:17:55;;;;;;;7.03;1.55;;;17.50;1.00;;;;;;4953681;28;20413;-70
2023/08/09 05:20:20;;;;;;;6.82;1.52;;;17.50;1.00;;;;;;4954007;29;20443;-70
2023/08/09 05:22:48;;;;;;;5.40;1.47;;;17.40;1.00;;;;;;4967394;28;20420;-70
2023/08/09 05:25:14;;;;;;;6.00;1.60;;;17.50;1.00;;;;;;4951011;28;21025;-69
2023/08/09 05:27:40;;;;;;;5.00;1.30;;;17.40;1.00;;;;;;4952653;29;20457;-70
2023/08/09 05:30:06;;;;;;;7.00;1.50;;;17.40;99.90;;;;;;4953456;29;20428;-70
2023/08/09 05:32:32;;;;;;;5.90;1.60;;;17.50;99.90;;;;;;4951974;28;20795;-70
2023/08/09 05:34:57;;;;;;;6.50;1.20;;;17.50;99.90;;;;;;4953668;29;20409;-69
2023/08/09 05:37:23;;;;;;;5.47;1.40;;;17.60;10.40;;;;;;4952447;29;20894;-69
2023/08/09 05:39:48;;;;;;;8.00;1.70;;;17.70;1.00;;;;;;4951858;29;20405;-70
2023/08/09 05:42:14;;;;;;;5.90;1.60;;;17.80;1.00;;;;;;4952234;29;20449;-69
2023/08/09 05:44:39;;;;;;;4.80;1.10;;;17.90;99.90;;;;;;4952081;29;20430;-70
2023/08/09 05:47:05;;;;;;;5.30;1.57;;;18.00;99.90;;;;;;4963669;28;20942;-70
2023/08/09 05:49:30;;;;;;;6.80;1.33;;;18.10;99.90;;;;;;4952032;29;20393;-70
2023/08/09 05:51:56;;;;;;;5.75;1.40;;;18.20;99.90;;;;;;4952345;29;20406;-70
2023/08/09 05:54:21;;;;;;;5.43;1.50;;;18.20;99.90;;;;;;4951924;28;20405;-70
2023/08/09 05:56:47;;;;;;;5.70;1.40;;;18.30;99.90;;;;;;4950235;29;20457;-70
2023/08/09 05:59:13;;;;;;;7.70;1.70;;;18.40;98.50;;;;;;4952223;29;20390;-70
2023/08/09 06:01:38;;;;;;;6.72;1.17;;;18.60;1.00;;;;;;4968783;28;20846;-73
2023/08/09 06:04:04;;;;;;;5.60;1.30;;;18.80;1.00;;;;;;4948179;28;20437;-70
2023/08/09 06:06:29;;;;;;;5.13;1.30;;;18.90;1.00;;;;;;4948686;28;21119;-70
2023/08/09 06:08:55;;;;;;;5.87;1.50;;;18.90;1.00;;;;;;4959242;28;20404;-70
2023/08/09 06:11:21;;;;;;;6.70;1.70;;;19.00;99.90;;;;;;4952468;28;20410;-70
2023/08/09 06:13:47;;;;;;;5.32;1.40;;;19.00;99.90;;;;;;4961514;28;20426;-70
2023/08/09 06:16:12;;;;;;;5.63;1.63;;;19.10;99.90;;;;;;4966713;28;20962;-70
2023/08/09 06:18:38;;;;;;;5.70;1.20;;;19.10;99.90;;;;;;4971200;28;20507;-70
2023/08/09 06:21:04;;;;;;;6.10;1.50;;;19.10;99.90;;;;;;4966114;28;20924;-70
2023/08/09 06:23:30;;;;;;;5.75;1.50;;;19.10;99.90;;;;;;4959966;28;20408;-69
2023/08/09 06:25:56;;;;;;;6.90;1.40;;;19.20;99.90;;;;;;4985408;28;20421;-70
2023/08/09 06:28:22;;;;;;;5.90;1.40;;;19.40;99.90;;;;;;4982949;28;20422;-70
2023/08/09 06:30:47;;;;;;;5.80;1.45;;;19.40;99.90;;;;;;4955229;29;20421;-70
2023/08/09 06:33:13;;;;;;;6.50;2.00;;;19.50;99.90;;;;;;4960857;28;20436;-70
2023/08/09 06:35:38;;;;;;;7.10;1.50;;;19.50;99.90;;;;;;4973284;28;20444;-70
2023/08/09 06:38:04;;;;;;;6.70;1.70;;;19.60;99.90;;;;;;4962679;28;20739;-70
2023/08/09 06:40:30;;;;;;;5.65;1.40;;;19.60;99.90;;;;;;4957200;29;20394;-70
2023/08/09 06:42:56;;;;;;;6.57;1.67;;;19.60;99.90;;;;;;4958472;28;20751;-70
2023/08/09 06:45:22;;;;;;;7.15;1.48;;;19.50;99.90;;;;;;4961527;28;20405;-69
2023/08/09 06:47:47;;;;;;;7.50;1.70;;;19.40;99.90;;;;;;4961945;29;20471;-70
2023/08/09 06:50:13;;;;;;;4.90;1.30;;;19.40;99.90;;;;;;4960547;29;20405;-70
2023/08/09 06:52:39;;;;;;;5.90;1.50;;;19.40;99.90;;;;;;4958848;28;20879;-70
2023/08/09 06:55:05;;;;;;;6.80;1.60;;;19.40;99.90;;;;;;4956856;28;20500;-70
2023/08/09 06:57:31;;;;;;;5.30;1.48;;;19.50;99.90;;;;;;4955839;28;20398;-71
2023/08/09 06:59:57;;;;;;;5.63;1.67;;;19.50;99.90;;;;;;4955954;29;20412;-71
2023/08/09 07:02:23;;;;;;;5.82;1.40;;;19.60;99.90;;;;;;4954496;28;20426;-69
2023/08/09 07:05:02;;;;;;;6.50;1.80;;;19.60;99.90;;;;;;4954151;29;20393;-69
2023/08/09 07:07:28;;;;;;;6.67;1.70;;;19.70;99.90;;;;;;4952787;28;20762;-69
2023/08/09 07:09:55;;;;;;;7.40;1.73;;;19.90;99.90;;;;;;4953204;29;20413;-69
2023/08/09 07:12:20;;;;;;;6.10;1.55;;;19.90;99.90;;;;;;4957517;28;20419;-69
2023/08/09 07:14:46;;;;;;;5.33;1.47;;;19.90;99.90;;;;;;4964495;28;20408;-69
2023/08/09 07:17:12;;;;;;;5.68;1.70;;;19.90;99.90;;;;;;4962053;28;20496;-69
2023/08/09 07:19:37;;;;;;;6.50;1.30;;;19.80;99.90;;;;;;4966215;28;20878;-69
2023/08/09 07:22:03;;;;;;;6.03;1.40;;;19.80;91.70;;;;;;4971168;28;20408;-69
2023/08/09 07:24:29;;;;;;;7.55;1.48;;;20.00;71.10;;;;;;4965717;28;20420;-69
2023/08/09 07:26:54;;;;;;;4.80;1.30;;;20.10;29.50;;;;;;4959158;28;20540;-69
2023/08/09 07:29:20;;;;;;;5.80;1.30;;;20.30;1.00;;;;;;4955830;28;20546;-70
2023/08/09 07:31:45;;;;;;;5.43;1.47;;;20.50;1.00;;;;;;4960791;28;20469;-69
2023/08/09 07:34:11;;;;;;;6.40;1.40;;;20.70;1.00;;;;;;4964276;28;20442;-69
2023/08/09 07:36:36;;;;;;;5.40;1.40;;;20.60;1.00;;;;;;4969819;28;20792;-70
2023/08/09 07:39:03;;;;;;;8.10;1.40;;;20.20;1.00;;;;;;4951867;28;20421;-70
2023/08/09 07:41:28;;;;;;;5.27;1.20;;;20.20;1.00;;;;;;4949304;29;20440;-70
2023/08/09 07:43:54;;;;;;;6.20;1.43;;;20.00;1.00;;;;;;4966427;28;20917;-70
2023/08/09 07:46:19;;;;;;;5.30;1.40;;;19.70;1.00;;;;;;4970389;28;20451;-70
2023/08/09 07:48:45;;;;;;;5.75;1.40;;;19.70;1.00;;;;;;4960406;28;20455;-70
2023/08/09 07:51:11;;;;;;;7.40;1.60;;;19.90;1.00;;;;;;4960908;28;20415;-70
2023/08/09 07:53:38;;;;;;;5.22;1.25;;;19.90;1.00;;;;;;4969953;28;20476;-70
2023/08/09 07:56:04;;;;;;;6.15;1.33;;;19.90;1.00;;;;;;4952423;28;20468;-70
2023/08/09 07:58:29;;;;;;;5.53;1.50;;;19.80;1.00;;;;;;4964211;28;20441;-70
2023/08/09 08:00:55;;;;;;;5.60;1.40;;;20.00;1.00;;;;;;4950555;29;20410;-70
2023/08/09 08:03:20;;;;;;;6.10;1.67;;;20.00;1.00;;;;;;4960064;28;20412;-70
2023/08/09 08:05:46;;;;;;;6.03;1.30;;;20.10;1.00;;;;;;4956638;28;20417;-70
2023/08/09 08:08:11;;;;;;;5.30;1.30;;;20.00;1.00;;;;;;4950289;29;20944;-70
2023/08/09 08:10:37;;;;;;;5.20;1.40;;;20.00;1.00;;;;;;4950259;29;20421;-70
2023/08/09 08:13:03;;;;;;;5.43;1.23;;;19.90;1.00;;;;;;4963899;28;20420;-70
2023/08/09 08:15:28;;;;;;;5.10;1.20;;;19.60;1.00;;;;;;4968303;28;20496;-70
2023/08/09 08:17:55;;;;;;;5.90;1.40;;;19.50;1.00;;;;;;4939954;28;20427;-69
2023/08/09 08:20:20;;;;;;;5.23;1.30;;;19.30;1.00;;;;;;4969290;28;20540;-69
2023/08/09 08:22:49;;;;;;;5.88;1.30;;;19.20;1.00;;;;;;4965888;28;20908;-69
2023/08/09 08:25:16;;;;;;;8.98;1.40;;;19.30;1.00;;;;;;4963971;28;20408;-69
2023/08/09 08:27:45;;;;;;;6.30;1.20;;;19.30;1.00;;;;;;4953166;28;20450;-70
2023/08/09 08:30:13;;;;;;;5.05;1.15;;;19.20;1.00;;;;;;4967383;28;20809;-70
2023/08/09 08:32:39;;;;;;;6.45;1.90;;;19.20;1.00;;;;;;4954960;28;20411;-70
2023/08/09 08:35:10;;;;;;;7.05;1.58;;;19.20;15.50;;;;;;4970357;28;20411;-70
2023/08/09 08:37:36;;;;;;;7.60;1.20;;;19.20;99.90;;;;;;4956103;28;20413;-70
2023/08/09 08:40:06;;;;;;;5.37;1.60;;;19.30;99.90;;;;;;4950704;28;20398;-70
2023/08/09 08:42:32;;;;;;;6.90;1.42;;;19.30;99.90;;;;;;4950794;28;20409;-69
2023/08/09 08:44:57;;;;;;;5.70;1.30;;;19.30;99.90;;;;;;4950587;29;20402;-70
2023/08/09 08:47:25;;;;;;;5.30;1.50;;;19.30;99.90;;;;;;4950529;29;20557;-70
2023/08/09 08:49:53;;;;;;;5.38;1.48;;;19.40;99.90;;;;;;4963104;28;20442;-70
2023/08/09 08:52:20;;;;;;;5.40;1.20;;;19.20;99.90;;;;;;4969715;28;20408;-70
2023/08/09 08:54:45;;;;;;;5.00;1.40;;;19.40;99.90;;;;;;4960259;28;20415;-70
2023/08/09 08:57:12;;;;;;;5.32;1.50;;;19.50;99.90;;;;;;4950250;29;20421;-71
2023/08/09 08:59:39;;;;;;;6.25;1.20;;;19.60;99.90;;;;;;4948053;28;20414;-70
2023/08/09 09:02:04;;;;;;;6.07;1.47;;;19.60;99.90;;;;;;4949459;29;20893;-69
2023/08/09 09:04:30;;;;;;;6.60;1.50;;;19.60;99.90;;;;;;4961687;28;20415;-70
2023/08/09 09:06:56;;;;;;;6.88;1.40;;;19.60;99.90;;;;;;4941347;29;20425;-69
2023/08/09 09:09:21;;;;;;;4.97;1.30;;;19.50;99.90;;;;;;4963080;28;20402;-69
2023/08/09 09:11:47;;;;;;;6.73;1.70;;;19.50;99.90;;;;;;4961465;28;20413;-70
2023/08/09 09:14:17;;;;;;;5.47;1.30;;;19.50;99.90;;;;;;4953068;28;20426;-69
2023/08/09 09:16:43;;;;;;;6.90;1.60;;;19.60;99.90;;;;;;4936987;29;20558;-70
2023/08/09 09:19:10;;;;;;;5.97;1.40;;;19.60;99.90;;;;;;4960585;28;20931;-70
2023/08/09 09:21:36;;;;;;;5.30;1.30;;;19.60;99.90;;;;;;4969648;28;20475;-70
2023/08/09 09:24:09;;;;;;;6.25;1.63;;;19.60;99.90;;;;;;4952971;28;20896;-71
2023/08/09 09:26:39;;;;;;;8.98;1.70;;;19.50;99.90;;;;;;4947331;28;20823;-71
2023/08/09 09:29:08;;;;;;;5.28;1.20;;;19.50;99.90;;;;;;4955732;28;20933;-71
2023/08/09 09:31:39;;;;;;;5.80;2.00;;;19.60;99.90;;;;;;4959676;28;20392;-71
2023/08/09 09:34:09;;;;;;;6.28;1.67;;;19.40;99.90;;;;;;4972186;28;20400;-70
2023/08/09 09:36:39;;;;;;;8.85;1.20;;;19.60;99.90;;;;;;4953672;28;20493;-70
2023/08/09 09:39:11;;;;;;;6.70;1.30;;;19.70;99.90;;;;;;4953480;28;20405;-70
2023/08/09 09:41:38;;;;;;;7.50;2.10;;;19.70;99.90;;;;;;4953832;28;20552;-70
2023/08/09 09:44:03;;;;;;;6.10;1.20;;;20.00;99.90;;;;;;4962235;28;20420;-70
2023/08/09 09:46:30;;;;;;;6.60;1.23;;;20.00;99.90;;;;;;4957147;28;20473;-71
2023/08/09 09:49:05;;;;;;;6.10;1.50;;;20.20;99.90;;;;;;4953338;28;20486;-71
2023/08/09 09:51:31;;;;;;;5.40;1.37;;;20.40;99.90;;;;;;4953414;28;20402;-71
2023/08/09 09:53:57;;;;;;;7.78;1.38;;;20.60;84.20;;;;;;4953317;28;20413;-72
2023/08/09 09:56:22;;;;;;;6.47;1.50;;;20.30;76.20;;;;;;4953880;29;20876;-71
2023/08/09 09:58:48;;;;;;;6.30;1.50;;;20.30;98.90;;;;;;4952797;29;20405;-71
2023/08/09 10:01:22;;;;;;;5.15;1.40;;;20.00;99.90;;;;;;4951638;28;20890;-71
2023/08/09 10:04:06;;;;;;;6.60;1.30;;;20.00;99.90;;;;;;4953240;28;20393;-70
2023/08/09 10:06:35;;;;;;;4.80;1.00;;;19.40;1.00;;;;;;4953224;28;20445;-71
2023/08/09 10:09:02;;;;;;;5.68;1.70;;;19.10;1.00;;;;;;4953043;28;20490;-71
2023/08/09 10:11:28;;;;;;;6.75;1.73;;;19.10;99.90;;;;;;4953148;28;20413;-71
2023/08/09 10:13:56;;;;;;;6.18;1.70;;;19.10;99.90;;;;;;4953995;28;20390;-72
2023/08/09 10:16:25;;;;;;;7.38;1.50;;;19.00;1.00;;;;;;4952674;28;20430;-71
2023/08/09 10:18:57;;;;;;;5.73;1.40;;;19.10;1.00;;;;;;4953397;28;20394;-71
2023/08/09 10:21:24;;;;;;;7.75;1.70;;;19.10;1.00;;;;;;4968888;28;20403;-71
2023/08/09 10:24:18;;;;;;;6.97;1.63;;;19.30;1.00;;;;;;4972628;28;20411;-72
2023/08/09 10:26:49;;;;;;;5.80;1.63;;;19.40;1.00;;;;;;4970870;28;20850;-72
2023/08/09 10:29:20;;;;;;;6.50;2.30;;;19.60;99.90;;;;;;4971968;28;20427;-72
2023/08/09 10:31:57;;;;;;;7.05;1.60;;;19.70;99.90;;;;;;4972141;28;20725;-72
2023/08/09 10:34:34;;;;;;;5.80;1.70;;;19.80;1.00;;;;;;4973215;28;20400;-71
2023/08/09 10:37:01;;;;;;;6.00;1.60;;;19.80;1.00;;;;;;4960296;28;20925;-71
2023/08/09 10:39:26;;;;;;;5.10;1.50;;;20.10;99.90;;;;;;4952692;28;20389;-72
2023/08/09 10:42:14;;;;;;;5.80;1.67;;;20.00;1.00;;;;;;4952483;28;20429;-71
2023/08/09 10:44:49;;;;;;;7.10;1.80;;;20.10;1.00;;;;;;4953012;28;20414;-71
2023/08/09 10:47:25;;;;;;;7.32;1.98;;;20.00;99.90;;;;;;4952214;28;20436;-71
2023/08/09 10:49:53;;;;;;;6.00;1.90;;;19.80;64.30;;;;;;4952022;28;20398;-72
2023/08/09 10:52:21;;;;;;;6.70;1.90;;;19.90;99.90;;;;;;4951596;28;20413;-71
2023/08/09 10:54:49;;;;;;;8.00;1.80;;;20.10;1.00;;;;;;4962209;28;20392;-72
2023/08/09 10:57:16;;;;;;;7.70;1.98;;;20.40;99.90;;;;;;4971316;28;20423;-72
2023/08/09 10:59:46;;;;;;;6.15;1.77;;;21.00;52.20;;;;;;4954454;28;20910;-71
2023/08/09 11:02:18;;;;;;;6.90;1.63;;;21.70;99.90;;;;;;4952084;28;20412;-71
2023/08/09 11:04:43;;;;;;;6.50;1.95;;;21.90;29.00;;;;;;4951645;29;20541;-71
2023/08/09 11:07:19;;;;;;;6.53;1.70;;;21.90;99.90;;;;;;4951570;29;20401;-72
2023/08/09 11:09:45;;;;;;;7.68;1.92;;;21.70;1.00;;;;;;4951452;28;20401;-71
2023/08/09 11:12:14;;;;;;;8.20;1.70;;;21.60;99.90;;;;;;4956032;28;20409;-71
2023/08/09 11:14:40;;;;;;;6.93;1.80;;;21.70;96.70;;;;;;4950934;28;20831;-71
2023/08/09 11:17:12;;;;;;;5.65;1.52;;;21.60;1.00;;;;;;4951685;29;20468;-71
2023/08/09 11:19:37;;;;;;;5.60;1.50;;;21.70;99.90;;;;;;4952165;28;20402;-70
2023/08/09 11:22:03;;;;;;;7.70;2.10;;;22.00;1.00;;;;;;4951563;29;20385;-71
2023/08/09 11:24:29;;;;;;;7.60;1.93;;;22.40;1.00;;;;;;4952399;29;20471;-71
2023/08/09 11:26:56;;;;;;;7.00;1.95;;;22.80;1.00;;;;;;4952126;28;20417;-71
2023/08/09 11:29:25;;;;;;;5.75;1.80;;;23.70;99.90;;;;;;4948012;29;20432;-71
2023/08/09 11:31:55;;;;;;;9.02;2.00;;;24.00;1.00;;;;;;4956311;28;20828;-71
2023/08/09 11:34:23;;;;;;;7.87;2.33;;;23.90;1.00;;;;;;4955373;28;20427;-71
2023/08/09 11:36:55;;;;;;;7.45;1.80;;;23.80;1.00;;;;;;4971539;28;20455;-72
2023/08/09 11:39:24;;;;;;;6.50;2.03;;;23.90;1.00;;;;;;4966143;28;20892;-71
2023/08/09 11:41:55;;;;;;;7.95;2.00;;;23.50;1.00;;;;;;4951230;28;20424;-72
2023/08/09 11:44:27;;;;;;;5.73;1.80;;;23.50;1.00;;;;;;4951621;29;20390;-70
2023/08/09 11:46:54;;;;;;;6.53;1.90;;;23.80;1.00;;;;;;4947129;28;20606;-71
2023/08/09 11:49:38;;;;;;;6.78;1.77;;;23.60;1.00;;;;;;4952978;28;20794;-71
2023/08/09 11:52:04;;;;;;;7.50;1.77;;;23.20;1.00;;;;;;4948591;28;20398;-71
2023/08/09 11:54:30;;;;;;;6.60;1.60;;;23.30;1.00;;;;;;4950728;28;20806;-71
2023/08/09 11:56:56;;;;;;;7.30;2.20;;;23.20;1.00;;;;;;4950437;28;20432;-71
2023/08/09 11:59:24;;;;;;;5.83;1.63;;;23.00;1.00;;;;;;4966743;28;21088;-71
2023/08/09 12:01:52;;;;;;;6.47;1.63;;;23.10;1.00;;;;;;4961910;28;20402;-72
2023/08/09 12:04:22;;;;;;;6.18;1.50;;;22.80;1.00;;;;;;4971218;28;20443;-79
2023/08/09 12:06:55;;;;;;;8.10;1.60;;;22.60;1.00;;;;;;4970739;28;20416;-79
2023/08/09 12:09:34;;;;;;;5.25;1.30;;;22.70;1.00;;;;;;4972911;28;20400;-78
2023/08/09 12:12:09;;;;;;;5.40;1.40;;;22.90;1.00;;;;;;4951880;29;20823;-80
2023/08/09 12:14:43;;;;;;;5.53;1.40;;;23.10;1.00;;;;;;4953336;29;20402;-78
2023/08/09 12:17:19;;;;;;;6.90;1.55;;;23.10;1.00;;;;;;4952969;29;20437;-78
2023/08/09 12:19:46;;;;;;;6.13;2.03;;;23.10;1.00;;;;;;4951768;29;20426;-79
2023/08/09 12:22:12;;;;;;;6.53;1.50;;;23.20;1.00;;;;;;4952290;29;20409;-79
2023/08/09 12:24:37;;;;;;;7.10;1.47;;;23.20;1.00;;;;;;4952792;29;20436;-78
2023/08/09 12:27:05;;;;;;;5.27;1.37;;;23.40;1.00;;;;;;4952375;29;20806;-79
2023/08/09 12:29:32;;;;;;;6.28;1.50;;;23.40;1.00;;;;;;4953801;29;20743;-80
2023/08/09 12:31:59;;;;;;;5.93;1.83;;;23.50;1.00;;;;;;4954405;29;20422;-80
2023/08/09 12:34:25;;;;;;;5.40;1.33;;;23.50;1.00;;;;;;4954820;29;20390;-80
2023/08/09 12:36:51;;;;;;;6.97;1.50;;;23.30;1.00;;;;;;4951403;29;20457;-80
2023/08/09 12:39:16;;;;;;;6.17;1.47;;;23.00;1.00;;;;;;4952698;29;20774;-80
2023/08/09 12:41:42;;;;;;;6.00;1.60;;;22.90;1.00;;;;;;4952342;29;20452;-79
2023/08/09 12:44:08;;;;;;;6.27;1.63;;;22.90;1.00;;;;;;4953011;29;20418;-80
2023/08/09 12:46:35;;;;;;;7.40;1.42;;;23.10;1.00;;;;;;4952307;29;20393;-80
2023/08/09 12:49:01;;;;;;;6.60;1.50;;;23.20;1.00;;;;;;4942613;29;20820;-79
2023/08/09 12:51:27;;;;;;;6.20;2.10;;;23.20;1.00;;;;;;4937754;29;20416;-80